createdAt,value
2022-08-24T00:00:03.128Z,20.44
2022-08-24T00:01:03.203Z,20.45
2022-08-24T00:02:02.346Z,20.41
2022-08-24T00:03:02.689Z,20.36
2022-08-24T00:04:02.414Z,20.33
2022-08-24T00:05:02.451Z,20.30
2022-08-24T00:06:02.453Z,20.27
2022-08-24T00:07:02.384Z,20.21
2022-08-24T00:08:03.136Z,20.17
2022-08-24T00:09:02.294Z,20.10
2022-08-24T00:10:02.678Z,20.07
2022-08-24T00:11:02.737Z,20.09
2022-08-24T00:12:02.633Z,20.11
2022-08-24T00:13:02.631Z,20.11
2022-08-24T00:14:02.640Z,20.09
2022-08-24T00:15:03.215Z,20.10
2022-08-24T00:16:02.945Z,20.16
2022-08-24T00:17:02.925Z,20.13
2022-08-24T00:18:03.111Z,20.12
2022-08-24T00:19:03.301Z,20.10
2022-08-24T00:20:03.212Z,20.10
2022-08-24T00:21:03.116Z,20.13
2022-08-24T00:22:03.209Z,20.15
2022-08-24T00:23:03.255Z,20.13
2022-08-24T00:24:03.443Z,20.12
2022-08-24T00:25:03.240Z,20.12
2022-08-24T00:26:03.088Z,20.09
2022-08-24T00:27:03.233Z,20.05
2022-08-24T00:28:03.230Z,20.06
2022-08-24T00:29:07.264Z,20.06
2022-08-24T00:30:03.182Z,20.05
2022-08-24T00:31:02.645Z,20.04
2022-08-24T00:32:02.355Z,20.02
2022-08-24T00:33:02.196Z,20.00
2022-08-24T00:34:02.811Z,19.98
2022-08-24T00:35:02.580Z,19.96
2022-08-24T00:36:02.478Z,19.93
2022-08-24T00:37:02.409Z,19.90
2022-08-24T00:38:02.421Z,19.91
2022-08-24T00:39:02.731Z,19.91
2022-08-24T00:40:02.307Z,19.87
2022-08-24T00:41:02.452Z,19.85
2022-08-24T00:42:03.060Z,19.82
2022-08-24T00:43:03.198Z,19.81
2022-08-24T00:44:03.194Z,19.82
2022-08-24T00:45:02.861Z,19.82
2022-08-24T00:46:03.504Z,19.84
2022-08-24T00:47:03.280Z,19.89
2022-08-24T00:48:03.430Z,19.94
2022-08-24T00:49:03.395Z,19.98
2022-08-24T00:50:03.355Z,19.96
2022-08-24T00:51:03.138Z,19.91
2022-08-24T00:52:03.627Z,19.87
2022-08-24T00:53:02.977Z,19.87
2022-08-24T00:54:02.870Z,19.84
2022-08-24T00:55:03.033Z,19.82
2022-08-24T00:56:03.134Z,19.77
2022-08-24T00:57:03.025Z,19.70
2022-08-24T00:58:03.107Z,19.65
2022-08-24T00:59:03.150Z,19.63
2022-08-24T01:00:03.152Z,19.60
2022-08-24T01:01:03.267Z,19.68
2022-08-24T01:02:15.635Z,19.66
2022-08-24T01:03:03.234Z,19.65
2022-08-24T01:04:03.392Z,19.60
2022-08-24T01:05:03.331Z,19.58
2022-08-24T01:06:03.223Z,19.57
2022-08-24T01:07:03.513Z,19.55
2022-08-24T01:08:03.831Z,19.55
2022-08-24T01:09:03.736Z,19.56
2022-08-24T01:10:03.658Z,19.52
2022-08-24T01:11:03.445Z,19.55
2022-08-24T01:12:02.771Z,19.54
2022-08-24T01:13:03.023Z,19.54
2022-08-24T01:14:03.088Z,19.56
2022-08-24T01:15:03.091Z,19.61
2022-08-24T01:16:03.071Z,19.64
2022-08-24T01:17:02.857Z,19.64
2022-08-24T01:18:02.995Z,19.62
2022-08-24T01:19:02.779Z,19.62
2022-08-24T01:20:02.599Z,19.57
2022-08-24T01:21:03.089Z,19.50
2022-08-24T01:22:03.442Z,19.46
2022-08-24T01:23:03.176Z,19.44
2022-08-24T01:24:03.967Z,19.44
2022-08-24T01:25:03.587Z,19.44
2022-08-24T01:26:03.453Z,19.43
2022-08-24T01:27:02.841Z,19.40
2022-08-24T01:28:04.447Z,19.40
2022-08-24T01:29:02.941Z,19.39
2022-08-24T01:30:02.820Z,19.38
2022-08-24T01:31:03.386Z,19.39
2022-08-24T01:32:03.756Z,19.38
2022-08-24T01:33:03.573Z,19.37
2022-08-24T01:34:04.218Z,19.33
2022-08-24T01:35:03.453Z,19.31
2022-08-24T01:36:04.046Z,19.30
2022-08-24T01:37:02.802Z,19.29
2022-08-24T01:38:02.931Z,19.28
2022-08-24T01:39:02.919Z,19.28
2022-08-24T01:40:02.838Z,19.27
2022-08-24T01:41:02.777Z,19.24
2022-08-24T01:42:03.436Z,19.23
2022-08-24T01:43:03.364Z,19.22
2022-08-24T01:44:03.267Z,19.19
2022-08-24T01:45:03.188Z,19.19
2022-08-24T01:46:03.490Z,19.18
2022-08-24T01:47:06.470Z,19.18
2022-08-24T01:48:04.032Z,19.18
2022-08-24T01:49:03.772Z,19.18
2022-08-24T01:50:03.714Z,19.23
2022-08-24T01:51:03.592Z,19.24
2022-08-24T01:52:03.134Z,19.27
2022-08-24T01:53:05.240Z,19.22
2022-08-24T01:54:03.355Z,19.16
2022-08-24T01:55:02.690Z,19.11
2022-08-24T01:56:02.824Z,19.11
2022-08-24T01:57:03.308Z,19.07
2022-08-24T01:58:03.549Z,19.03
2022-08-24T01:59:03.556Z,19.01
2022-08-24T02:00:03.169Z,19.00
2022-08-24T02:01:03.029Z,19.02
2022-08-24T02:02:02.720Z,19.01
2022-08-24T02:03:02.690Z,18.95
2022-08-24T02:04:02.593Z,18.92
2022-08-24T02:05:02.554Z,18.88
2022-08-24T02:06:02.607Z,18.85
2022-08-24T02:07:02.738Z,18.82
2022-08-24T02:08:03.067Z,18.83
2022-08-24T02:09:03.274Z,18.85
2022-08-24T02:10:02.843Z,18.87
2022-08-24T02:11:03.003Z,18.88
2022-08-24T02:12:03.463Z,18.89
2022-08-24T02:13:03.221Z,18.91
2022-08-24T02:14:02.910Z,18.89
2022-08-24T02:15:03.194Z,18.87
2022-08-24T02:16:03.105Z,18.89
2022-08-24T02:17:02.752Z,18.90
2022-08-24T02:18:02.852Z,18.85
2022-08-24T02:19:02.813Z,18.80
2022-08-24T02:20:02.501Z,18.76
2022-08-24T02:21:02.202Z,18.74
2022-08-24T02:22:03.468Z,18.73
2022-08-24T02:23:03.574Z,18.71
2022-08-24T02:24:03.008Z,18.69
2022-08-24T02:25:03.129Z,18.65
2022-08-24T02:26:03.088Z,18.64
2022-08-24T02:27:03.043Z,18.65
2022-08-24T02:28:03.389Z,18.66
2022-08-24T02:29:03.816Z,18.66
2022-08-24T02:30:03.159Z,18.69
2022-08-24T02:31:03.802Z,18.70
2022-08-24T02:32:02.554Z,18.73
2022-08-24T02:33:03.169Z,18.75
2022-08-24T02:34:02.560Z,18.77
2022-08-24T02:35:02.570Z,18.77
2022-08-24T02:36:03.212Z,18.76
2022-08-24T02:37:03.705Z,18.77
2022-08-24T02:38:03.013Z,18.75
2022-08-24T02:39:03.032Z,18.73
2022-08-24T02:40:03.741Z,18.70
2022-08-24T02:41:03.478Z,18.71
2022-08-24T02:42:02.693Z,18.69
2022-08-24T02:43:02.640Z,18.65
2022-08-24T02:44:02.908Z,18.61
2022-08-24T02:45:02.683Z,18.59
2022-08-24T02:46:02.739Z,18.58
2022-08-24T02:47:03.266Z,18.57
2022-08-24T02:48:02.954Z,18.60
2022-08-24T02:49:11.521Z,18.55
2022-08-24T02:50:02.836Z,18.50
2022-08-24T02:51:02.703Z,18.49
2022-08-24T02:52:02.875Z,18.48
2022-08-24T02:53:02.602Z,18.51
2022-08-24T02:54:02.676Z,18.54
2022-08-24T02:55:02.603Z,18.52
2022-08-24T02:56:02.703Z,18.52
2022-08-24T02:57:02.721Z,18.51
2022-08-24T02:58:02.684Z,18.48
2022-08-24T02:59:02.540Z,18.44
2022-08-24T03:00:08.182Z,18.40
2022-08-24T03:01:02.696Z,18.32
2022-08-24T03:02:02.419Z,18.25
2022-08-24T03:03:02.832Z,18.20
2022-08-24T03:04:02.273Z,18.19
2022-08-24T03:05:02.234Z,18.17
2022-08-24T03:06:02.709Z,18.15
2022-08-24T03:07:02.626Z,18.13
2022-08-24T03:08:03.033Z,18.12
2022-08-24T03:09:03.082Z,18.13
2022-08-24T03:10:02.809Z,18.12
2022-08-24T03:11:02.669Z,18.11
2022-08-24T03:12:02.366Z,18.11
2022-08-24T03:13:02.862Z,18.09
2022-08-24T03:14:02.261Z,18.08
2022-08-24T03:15:02.497Z,18.07
2022-08-24T03:16:02.513Z,18.07
2022-08-24T03:17:02.570Z,18.06
2022-08-24T03:18:02.722Z,18.03
2022-08-24T03:19:02.439Z,18.02
2022-08-24T03:20:02.653Z,18.02
2022-08-24T03:21:02.522Z,18.03
2022-08-24T03:22:03.160Z,18.03
2022-08-24T03:23:03.138Z,18.03
2022-08-24T03:24:03.136Z,18.03
2022-08-24T03:25:03.447Z,18.02
2022-08-24T03:26:03.334Z,17.99
2022-08-24T03:27:02.362Z,17.97
2022-08-24T03:28:02.218Z,17.94
2022-08-24T03:29:02.459Z,17.90
2022-08-24T03:30:02.257Z,17.90
2022-08-24T03:31:02.326Z,17.85
2022-08-24T03:32:02.788Z,17.83
2022-08-24T03:33:03.154Z,17.82
2022-08-24T03:34:02.529Z,17.82
2022-08-24T03:35:03.125Z,17.81
2022-08-24T03:36:02.596Z,17.83
2022-08-24T03:37:03.238Z,17.88
2022-08-24T03:38:03.046Z,17.88
2022-08-24T03:39:03.611Z,17.89
2022-08-24T03:40:03.381Z,17.89
2022-08-24T03:41:03.072Z,17.84
2022-08-24T03:42:02.617Z,17.82
2022-08-24T03:43:02.781Z,17.79
2022-08-24T03:44:02.785Z,17.73
2022-08-24T03:45:02.769Z,17.72
2022-08-24T03:46:02.680Z,17.67
2022-08-24T03:47:03.272Z,17.66
2022-08-24T03:48:03.246Z,17.69
2022-08-24T03:49:03.206Z,17.66
2022-08-24T03:50:03.090Z,17.63
2022-08-24T03:51:03.183Z,17.70
2022-08-24T03:52:02.926Z,17.74
2022-08-24T03:53:02.968Z,17.79
2022-08-24T03:54:02.755Z,17.84
2022-08-24T03:55:02.792Z,17.84
2022-08-24T03:56:07.002Z,17.79
2022-08-24T03:57:03.356Z,17.71
2022-08-24T03:58:03.277Z,17.66
2022-08-24T03:59:02.955Z,17.63
2022-08-24T04:00:03.190Z,17.63
2022-08-24T04:01:03.263Z,17.65
2022-08-24T04:02:02.908Z,17.66
2022-08-24T04:03:02.632Z,17.68
2022-08-24T04:04:02.743Z,17.71
2022-08-24T04:05:02.749Z,17.73
2022-08-24T04:06:02.479Z,17.73
2022-08-24T04:07:03.072Z,17.73
2022-08-24T04:08:02.671Z,17.73
2022-08-24T04:09:02.867Z,17.72
2022-08-24T04:10:03.023Z,17.67
2022-08-24T04:11:03.035Z,17.63
2022-08-24T04:12:03.213Z,17.57
2022-08-24T04:13:02.938Z,17.56
2022-08-24T04:14:02.994Z,17.58
2022-08-24T04:15:03.009Z,17.56
2022-08-24T04:16:02.953Z,17.56
2022-08-24T04:17:02.536Z,17.58
2022-08-24T04:18:02.398Z,17.62
2022-08-24T04:19:02.172Z,17.63
2022-08-24T04:20:02.696Z,17.63
2022-08-24T04:21:02.763Z,17.57
2022-08-24T04:22:03.376Z,17.52
2022-08-24T04:23:03.034Z,17.47
2022-08-24T04:24:03.208Z,17.43
2022-08-24T04:25:09.402Z,17.38
2022-08-24T04:26:02.975Z,17.36
2022-08-24T04:27:02.698Z,17.33
2022-08-24T04:28:02.423Z,17.27
2022-08-24T04:29:02.336Z,17.27
2022-08-24T04:30:02.311Z,17.26
2022-08-24T04:31:02.519Z,17.27
2022-08-24T04:32:02.772Z,17.29
2022-08-24T04:33:03.062Z,17.26
2022-08-24T04:34:03.040Z,17.25
2022-08-24T04:35:02.943Z,17.25
2022-08-24T04:36:02.809Z,17.25
2022-08-24T04:37:03.446Z,17.22
2022-08-24T04:38:02.908Z,17.19
2022-08-24T04:39:02.909Z,17.17
2022-08-24T04:40:02.937Z,17.19
2022-08-24T04:41:03.291Z,17.17
2022-08-24T04:42:03.155Z,17.15
2022-08-24T04:43:02.839Z,17.17
2022-08-24T04:44:02.601Z,17.16
2022-08-24T04:45:02.696Z,17.17
2022-08-24T04:46:02.730Z,17.21
2022-08-24T04:47:03.465Z,17.20
2022-08-24T04:48:03.363Z,17.21
2022-08-24T04:49:03.407Z,17.18
2022-08-24T04:50:03.209Z,17.12
2022-08-24T04:51:03.098Z,17.12
2022-08-24T04:52:02.199Z,17.16
2022-08-24T04:53:02.937Z,17.14
2022-08-24T04:54:02.228Z,17.12
2022-08-24T04:55:02.238Z,17.13
2022-08-24T04:56:02.244Z,17.16
2022-08-24T04:57:02.243Z,17.15
2022-08-24T04:58:02.639Z,17.18
2022-08-24T04:59:02.400Z,17.21
2022-08-24T05:00:02.377Z,17.19
2022-08-24T05:01:02.499Z,17.20
2022-08-24T05:02:02.633Z,17.15
2022-08-24T05:03:02.853Z,17.11
2022-08-24T05:04:03.066Z,17.06
2022-08-24T05:05:02.756Z,17.03
2022-08-24T05:06:02.755Z,17.02
2022-08-24T05:07:02.112Z,17.03
2022-08-24T05:08:02.229Z,17.07
2022-08-24T05:09:02.253Z,17.07
2022-08-24T05:10:02.261Z,17.08
2022-08-24T05:11:02.283Z,17.06
2022-08-24T05:12:02.267Z,17.04
2022-08-24T05:13:02.388Z,17.03
2022-08-24T05:14:02.606Z,17.03
2022-08-24T05:15:02.427Z,17.03
2022-08-24T05:16:02.314Z,17.03
2022-08-24T05:17:03.070Z,17.04
2022-08-24T05:18:02.872Z,17.05
2022-08-24T05:19:02.890Z,17.06
2022-08-24T05:20:02.950Z,17.06
2022-08-24T05:21:02.857Z,17.06
2022-08-24T05:22:01.915Z,17.06
2022-08-24T05:23:04.525Z,17.06
2022-08-24T05:24:02.063Z,17.04
2022-08-24T05:25:02.105Z,17.03
2022-08-24T05:26:02.134Z,17.04
2022-08-24T05:27:02.178Z,17.05
2022-08-24T05:28:02.219Z,17.05
2022-08-24T05:29:02.236Z,17.07
2022-08-24T05:30:02.038Z,17.08
2022-08-24T05:31:02.431Z,17.08
2022-08-24T05:32:02.498Z,17.09
2022-08-24T05:33:02.904Z,17.10
2022-08-24T05:34:02.862Z,17.11
2022-08-24T05:35:02.925Z,17.12
2022-08-24T05:36:02.974Z,17.14
2022-08-24T05:37:03.213Z,17.16
2022-08-24T05:38:03.293Z,17.16
2022-08-24T05:39:03.089Z,17.16
2022-08-24T05:40:02.734Z,17.19
2022-08-24T05:41:03.110Z,17.19
2022-08-24T05:42:02.918Z,17.19
2022-08-24T05:43:03.155Z,17.18
2022-08-24T05:44:06.685Z,17.19
2022-08-24T05:45:03.402Z,17.21
2022-08-24T05:46:02.930Z,17.22
2022-08-24T05:47:02.255Z,17.24
2022-08-24T05:48:01.939Z,17.26
2022-08-24T05:49:02.009Z,17.31
2022-08-24T05:50:02.191Z,17.34
2022-08-24T05:51:02.248Z,17.39
2022-08-24T05:52:02.383Z,17.46
2022-08-24T05:53:02.596Z,17.51
2022-08-24T05:54:02.322Z,17.53
2022-08-24T05:55:02.253Z,17.56
2022-08-24T05:56:02.711Z,17.62
2022-08-24T05:57:02.603Z,17.67
2022-08-24T05:58:02.601Z,17.70
2022-08-24T05:59:02.748Z,17.75
2022-08-24T06:00:02.871Z,17.80
2022-08-24T06:01:02.617Z,17.85
2022-08-24T06:02:02.767Z,17.95
2022-08-24T06:03:03.463Z,18.00
2022-08-24T06:04:03.113Z,18.05
2022-08-24T06:05:03.010Z,18.14
2022-08-24T06:06:03.092Z,18.22
2022-08-24T06:07:02.298Z,18.29
2022-08-24T06:08:02.669Z,18.38
2022-08-24T06:09:02.520Z,18.50
2022-08-24T06:10:20.196Z,18.62
2022-08-24T06:11:02.201Z,18.74
2022-08-24T06:12:02.408Z,18.85
2022-08-24T06:13:02.556Z,18.91
2022-08-24T06:14:02.550Z,19.01
2022-08-24T06:15:02.149Z,19.12
2022-08-24T06:16:20.356Z,19.20
2022-08-24T06:17:03.077Z,19.30
2022-08-24T06:18:03.136Z,19.40
2022-08-24T06:19:02.755Z,19.44
2022-08-24T06:20:02.925Z,19.53
2022-08-24T06:21:03.357Z,19.68
2022-08-24T06:22:02.490Z,19.80
2022-08-24T06:23:02.953Z,19.91
2022-08-24T06:24:02.423Z,20.00
2022-08-24T06:25:02.200Z,20.11
2022-08-24T06:26:02.242Z,20.22
2022-08-24T06:27:02.986Z,20.33
2022-08-24T06:28:03.235Z,20.43
2022-08-24T06:29:03.306Z,20.50
2022-08-24T06:30:02.711Z,20.58
2022-08-24T06:31:02.829Z,20.64
2022-08-24T06:32:02.731Z,20.73
2022-08-24T06:33:02.799Z,20.84
2022-08-24T06:34:02.447Z,20.91
2022-08-24T06:35:02.618Z,20.95
2022-08-24T06:36:02.461Z,21.04
2022-08-24T06:37:02.980Z,21.14
2022-08-24T06:38:03.078Z,21.25
2022-08-24T06:39:03.258Z,21.35
2022-08-24T06:40:03.199Z,21.45
2022-08-24T06:41:03.087Z,21.55
2022-08-24T06:42:02.218Z,21.64
2022-08-24T06:43:02.319Z,21.76
2022-08-24T06:44:02.359Z,21.86
2022-08-24T06:45:01.880Z,21.91
2022-08-24T06:46:02.491Z,21.93
2022-08-24T06:47:02.644Z,22.00
2022-08-24T06:48:02.200Z,22.10
2022-08-24T06:49:02.158Z,22.19
2022-08-24T06:50:02.559Z,22.28
2022-08-24T06:51:02.321Z,22.39
2022-08-24T06:52:02.471Z,22.49
2022-08-24T06:53:02.245Z,22.58
2022-08-24T06:54:02.698Z,22.61
2022-08-24T06:55:02.604Z,22.63
2022-08-24T06:56:02.570Z,22.68
2022-08-24T06:57:03.108Z,22.74
2022-08-24T06:58:03.313Z,22.83
2022-08-24T06:59:03.149Z,22.91
2022-08-24T07:00:03.058Z,23.00
2022-08-24T07:01:02.937Z,23.07
2022-08-24T07:02:03.112Z,23.13
2022-08-24T07:03:03.622Z,23.20
2022-08-24T07:04:03.185Z,23.25
2022-08-24T07:05:02.917Z,23.34
2022-08-24T07:06:02.949Z,23.43
2022-08-24T07:07:02.757Z,23.47
2022-08-24T07:08:02.483Z,23.50
2022-08-24T07:09:02.645Z,23.54
2022-08-24T07:10:02.776Z,23.59
2022-08-24T07:11:02.576Z,23.66
2022-08-24T07:12:02.447Z,23.73
2022-08-24T07:13:02.136Z,23.77
2022-08-24T07:14:02.393Z,23.82
2022-08-24T07:15:02.538Z,23.86
2022-08-24T07:16:02.151Z,23.93
2022-08-24T07:17:03.174Z,24.01
2022-08-24T07:18:03.127Z,24.08
2022-08-24T07:19:02.984Z,24.16
2022-08-24T07:20:02.546Z,24.25
2022-08-24T07:21:03.659Z,24.34
2022-08-24T07:22:03.360Z,24.44
2022-08-24T07:23:03.504Z,24.51
2022-08-24T07:24:03.378Z,24.54
2022-08-24T07:25:02.850Z,24.58
2022-08-24T07:26:03.006Z,24.67
2022-08-24T07:27:02.923Z,24.77
2022-08-24T07:28:05.615Z,24.86
2022-08-24T07:29:02.597Z,24.93
2022-08-24T07:30:25.739Z,24.98
2022-08-24T07:31:03.091Z,25.05
2022-08-24T07:32:03.024Z,25.10
2022-08-24T07:33:02.486Z,25.19
2022-08-24T07:34:03.082Z,25.28
2022-08-24T07:35:02.998Z,25.35
2022-08-24T07:36:02.514Z,25.43
2022-08-24T07:37:03.195Z,25.53
2022-08-24T07:38:03.283Z,25.64
2022-08-24T07:39:02.889Z,25.72
2022-08-24T07:40:03.079Z,25.80
2022-08-24T07:41:35.420Z,25.88
2022-08-24T07:42:13.028Z,25.94
2022-08-24T07:43:02.489Z,26.01
2022-08-24T07:44:02.827Z,26.14
2022-08-24T07:45:02.606Z,26.20
2022-08-24T07:46:02.885Z,26.27
2022-08-24T07:47:15.404Z,26.33
2022-08-24T07:49:11.682Z,26.48
2022-08-24T07:50:03.047Z,26.55
2022-08-24T07:51:03.121Z,26.63
2022-08-24T07:52:02.872Z,26.71
2022-08-24T07:53:02.878Z,26.77
2022-08-24T07:54:02.418Z,26.81
2022-08-24T07:55:02.641Z,26.87
2022-08-24T07:56:02.822Z,26.86
2022-08-24T07:57:02.873Z,26.89
2022-08-24T07:58:02.968Z,26.86
2022-08-24T07:59:03.192Z,26.86
2022-08-24T08:00:04.885Z,26.88
2022-08-24T08:01:03.477Z,26.98
2022-08-24T08:02:02.413Z,27.06
2022-08-24T08:03:02.557Z,27.15
2022-08-24T08:04:02.553Z,27.19
2022-08-24T08:05:02.568Z,27.20
2022-08-24T08:06:02.724Z,27.27
2022-08-24T08:07:03.471Z,27.33
2022-08-24T08:08:03.491Z,27.41
2022-08-24T08:09:02.914Z,27.45
2022-08-24T08:10:02.983Z,27.52
2022-08-24T08:11:03.120Z,27.55
2022-08-24T08:12:02.233Z,27.65
2022-08-24T08:13:02.387Z,27.74
2022-08-24T08:14:02.360Z,27.80
2022-08-24T08:15:02.705Z,27.86
2022-08-24T08:16:03.961Z,27.90
2022-08-24T08:17:02.985Z,27.98
2022-08-24T08:18:03.055Z,28.04
2022-08-24T08:19:11.267Z,28.04
2022-08-24T08:20:03.162Z,28.06
2022-08-24T08:21:03.039Z,28.12
2022-08-24T08:22:02.727Z,28.15
2022-08-24T08:23:03.072Z,28.17
2022-08-24T08:24:02.679Z,28.23
2022-08-24T08:25:02.635Z,28.31
2022-08-24T08:26:02.706Z,28.32
2022-08-24T08:27:03.042Z,28.32
2022-08-24T08:28:12.771Z,28.33
2022-08-24T08:29:03.452Z,28.30
2022-08-24T08:30:03.418Z,28.26
2022-08-24T08:31:03.607Z,28.26
2022-08-24T08:32:03.377Z,28.31
2022-08-24T08:33:03.733Z,28.41
2022-08-24T08:34:02.996Z,28.44
2022-08-24T08:35:03.159Z,28.53
2022-08-24T08:36:03.375Z,28.63
2022-08-24T08:37:02.627Z,28.72
2022-08-24T08:38:02.857Z,28.78
2022-08-24T08:39:02.610Z,28.83
2022-08-24T08:40:02.523Z,28.85
2022-08-24T08:41:02.908Z,28.91
2022-08-24T08:42:02.920Z,28.97
2022-08-24T08:43:03.125Z,29.02
2022-08-24T08:44:03.327Z,29.06
2022-08-24T08:45:03.137Z,29.06
2022-08-24T08:46:02.824Z,29.09
2022-08-24T08:47:03.276Z,29.10
2022-08-24T08:49:03.328Z,29.25
2022-08-24T08:50:03.522Z,29.31
2022-08-24T08:51:03.153Z,29.42
2022-08-24T08:52:03.027Z,29.48
2022-08-24T08:53:03.474Z,29.53
2022-08-24T08:54:03.449Z,29.54
2022-08-24T08:55:03.163Z,29.57
2022-08-24T08:56:03.338Z,29.60
2022-08-24T08:57:03.860Z,29.64
2022-08-24T08:58:03.628Z,29.70
2022-08-24T08:59:04.355Z,29.73
2022-08-24T09:00:03.627Z,29.82
2022-08-24T09:01:04.743Z,29.84
2022-08-24T09:02:02.921Z,29.89
2022-08-24T09:03:03.509Z,29.90
2022-08-24T09:04:02.941Z,29.92
2022-08-24T09:05:02.981Z,29.97
2022-08-24T09:06:03.166Z,30.01
2022-08-24T09:07:02.786Z,29.99
2022-08-24T09:08:03.196Z,30.09
2022-08-24T09:09:02.768Z,30.16
2022-08-24T09:10:02.898Z,30.27
2022-08-24T09:11:02.977Z,30.36
2022-08-24T09:12:03.219Z,30.35
2022-08-24T09:13:03.184Z,30.39
2022-08-24T09:14:03.258Z,30.52
2022-08-24T09:15:03.335Z,30.55
2022-08-24T09:16:07.114Z,30.57
2022-08-24T09:17:03.570Z,30.63
2022-08-24T09:18:04.021Z,30.75
2022-08-24T09:19:03.754Z,30.81
2022-08-24T09:20:03.279Z,30.81
2022-08-24T09:21:03.513Z,30.86
2022-08-24T09:22:03.652Z,30.86
2022-08-24T09:23:03.542Z,30.89
2022-08-24T09:24:03.591Z,30.84
2022-08-24T09:25:03.516Z,30.88
2022-08-24T09:26:03.723Z,30.91
2022-08-24T09:27:03.087Z,30.95
2022-08-24T09:28:03.220Z,31.03
2022-08-24T09:29:03.186Z,31.08
2022-08-24T09:30:02.847Z,31.04
2022-08-24T09:31:03.473Z,30.99
2022-08-24T09:32:03.290Z,30.96
2022-08-24T09:33:03.494Z,30.94
2022-08-24T09:34:03.465Z,30.90
2022-08-24T09:35:03.575Z,30.89
2022-08-24T09:36:03.419Z,30.94
2022-08-24T09:37:03.552Z,31.03
2022-08-24T09:38:03.627Z,31.03
2022-08-24T09:39:03.381Z,31.05
2022-08-24T09:40:03.323Z,31.06
2022-08-24T09:41:03.239Z,31.08
2022-08-24T09:42:03.238Z,31.18
2022-08-24T09:43:03.269Z,31.29
2022-08-24T09:44:03.674Z,31.37
2022-08-24T09:45:03.426Z,31.38
2022-08-24T09:46:03.536Z,31.34
2022-08-24T09:47:03.334Z,31.39
2022-08-24T09:48:03.430Z,31.44
2022-08-24T09:49:03.575Z,31.50
2022-08-24T09:50:03.485Z,31.57
2022-08-24T09:51:03.613Z,31.70
2022-08-24T09:52:03.441Z,31.77
2022-08-24T09:53:03.789Z,31.88
2022-08-24T09:54:03.633Z,31.96
2022-08-24T09:55:03.475Z,31.96
2022-08-24T09:56:03.602Z,31.98
2022-08-24T09:57:12.075Z,32.01
2022-08-24T09:58:03.906Z,32.10
2022-08-24T09:59:04.041Z,32.16
2022-08-24T10:00:03.719Z,32.16
2022-08-24T10:01:03.501Z,32.23
2022-08-24T10:02:02.245Z,32.32
2022-08-24T10:03:01.589Z,32.31
2022-08-24T10:04:02.156Z,32.33
2022-08-24T10:05:01.798Z,32.34
2022-08-24T10:06:02.334Z,32.33
2022-08-24T10:07:02.330Z,32.34
2022-08-24T10:08:02.527Z,32.33
2022-08-24T10:09:02.475Z,32.35
2022-08-24T10:10:02.392Z,32.31
2022-08-24T10:11:01.838Z,32.30
2022-08-24T10:12:03.051Z,32.35
2022-08-24T10:13:02.926Z,32.37
2022-08-24T10:14:02.739Z,32.46
2022-08-24T10:15:02.918Z,32.51
2022-08-24T10:16:03.352Z,32.57
2022-08-24T10:17:03.130Z,32.65
2022-08-24T10:18:02.868Z,32.65
2022-08-24T10:19:02.911Z,32.63
2022-08-24T10:20:02.902Z,32.69
2022-08-24T10:21:03.030Z,32.68
2022-08-24T10:22:03.176Z,32.66
2022-08-24T10:23:03.102Z,32.65
2022-08-24T10:24:03.145Z,32.78
2022-08-24T10:25:03.223Z,32.81
2022-08-24T10:26:03.064Z,32.87
2022-08-24T10:27:02.959Z,32.89
2022-08-24T10:28:02.878Z,32.94
2022-08-24T10:29:03.066Z,33.00
2022-08-24T10:30:02.969Z,33.02
2022-08-24T10:31:03.027Z,33.19
2022-08-24T10:32:02.744Z,33.23
2022-08-24T10:33:02.598Z,33.26
2022-08-24T10:34:02.225Z,33.34
2022-08-24T10:35:02.666Z,33.42
2022-08-24T10:36:02.107Z,33.43
2022-08-24T10:37:02.948Z,33.45
2022-08-24T10:38:02.877Z,33.54
2022-08-24T10:39:02.746Z,33.63
2022-08-24T10:40:05.982Z,33.71
2022-08-24T10:41:02.777Z,33.72
2022-08-24T10:42:01.905Z,33.76
2022-08-24T10:43:02.218Z,33.88
2022-08-24T10:44:02.453Z,33.96
2022-08-24T10:45:02.048Z,34.02
2022-08-24T10:46:02.684Z,34.01
2022-08-24T10:47:02.575Z,34.01
2022-08-24T10:48:02.802Z,34.04
2022-08-24T10:49:02.979Z,34.04
2022-08-24T10:50:02.706Z,34.08
2022-08-24T10:51:02.838Z,34.06
2022-08-24T10:52:02.758Z,34.06
2022-08-24T10:53:02.960Z,34.02
2022-08-24T10:54:02.969Z,34.00
2022-08-24T10:55:03.063Z,34.00
2022-08-24T10:56:03.021Z,34.09
2022-08-24T10:57:02.844Z,34.06
2022-08-24T10:58:03.037Z,34.11
2022-08-24T10:59:03.223Z,34.14
2022-08-24T11:00:03.216Z,34.23
2022-08-24T11:01:03.300Z,34.25
2022-08-24T11:02:06.660Z,34.25
2022-08-24T11:03:02.883Z,34.39
2022-08-24T11:04:02.957Z,34.48
2022-08-24T11:05:02.735Z,34.59
2022-08-24T11:06:02.861Z,34.71
2022-08-24T11:07:02.851Z,34.83
2022-08-24T11:08:02.140Z,34.92
2022-08-24T11:09:02.409Z,34.99
2022-08-24T11:10:02.504Z,34.95
2022-08-24T11:11:02.600Z,34.93
2022-08-24T11:12:02.664Z,34.99
2022-08-24T11:13:02.769Z,35.10
2022-08-24T11:14:02.920Z,35.22
2022-08-24T11:15:02.922Z,35.29
2022-08-24T11:16:02.981Z,35.33
2022-08-24T11:17:02.996Z,35.42
2022-08-24T11:18:03.186Z,35.50
2022-08-24T11:19:02.769Z,35.63
2022-08-24T11:20:02.918Z,35.67
2022-08-24T11:21:02.482Z,35.72
2022-08-24T11:22:02.585Z,35.80
2022-08-24T11:23:03.269Z,35.86
2022-08-24T11:24:03.345Z,35.87
2022-08-24T11:25:03.504Z,35.90
2022-08-24T11:26:03.673Z,35.94
2022-08-24T11:27:03.608Z,36.02
2022-08-24T11:28:03.424Z,36.04
2022-08-24T11:29:03.321Z,36.10
2022-08-24T11:30:03.448Z,36.11
2022-08-24T11:31:03.333Z,36.17
2022-08-24T11:32:03.496Z,36.20
2022-08-24T11:33:03.784Z,36.20
2022-08-24T11:34:03.355Z,36.24
2022-08-24T11:35:03.485Z,36.25
2022-08-24T11:36:03.748Z,36.22
2022-08-24T11:37:03.761Z,36.20
2022-08-24T11:38:03.874Z,36.30
2022-08-24T11:39:03.903Z,36.36
2022-08-24T11:40:03.790Z,36.40
2022-08-24T11:41:03.550Z,36.33
2022-08-24T11:42:03.586Z,36.24
2022-08-24T11:43:05.866Z,36.13
2022-08-24T11:44:03.588Z,36.16
2022-08-24T11:45:03.015Z,36.18
2022-08-24T11:46:04.261Z,36.16
2022-08-24T11:47:03.316Z,36.24
2022-08-24T11:48:03.481Z,36.32
2022-08-24T11:49:03.174Z,36.31
2022-08-24T11:50:03.362Z,36.38
2022-08-24T11:51:02.774Z,36.43
2022-08-24T11:52:02.958Z,36.49
2022-08-24T11:53:03.827Z,36.56
2022-08-24T11:54:03.906Z,36.60
2022-08-24T11:55:05.372Z,36.62
2022-08-24T11:56:03.308Z,36.60
2022-08-24T11:57:03.499Z,36.57
2022-08-24T11:58:03.079Z,36.63
2022-08-24T11:59:02.869Z,36.69
2022-08-24T12:00:03.404Z,36.72
2022-08-24T12:01:03.214Z,36.79
2022-08-24T12:02:03.667Z,36.85
2022-08-24T12:03:03.580Z,36.96
2022-08-24T12:04:03.063Z,36.98
2022-08-24T12:05:03.579Z,36.92
2022-08-24T12:06:03.075Z,37.00
2022-08-24T12:07:03.609Z,37.01
2022-08-24T12:08:04.126Z,37.07
2022-08-24T12:09:06.061Z,37.13
2022-08-24T12:10:03.415Z,37.05
2022-08-24T12:11:03.376Z,37.07
2022-08-24T12:12:03.495Z,37.12
2022-08-24T12:13:03.392Z,37.15
2022-08-24T12:14:02.888Z,37.23
2022-08-24T12:15:02.851Z,37.27
2022-08-24T12:16:03.144Z,37.17
2022-08-24T12:17:03.138Z,37.03
2022-08-24T12:18:04.066Z,37.07
2022-08-24T12:19:03.956Z,37.09
2022-08-24T12:20:03.923Z,37.15
2022-08-24T12:21:03.817Z,37.25
2022-08-24T12:22:03.895Z,37.36
2022-08-24T12:23:04.035Z,37.31
2022-08-24T12:24:03.921Z,37.32
2022-08-24T12:25:04.033Z,37.37
2022-08-24T12:26:03.858Z,37.49
2022-08-24T12:27:03.976Z,37.61
2022-08-24T12:28:03.847Z,37.71
2022-08-24T12:29:04.005Z,37.75
2022-08-24T12:30:05.709Z,37.80
2022-08-24T12:31:04.068Z,37.85
2022-08-24T12:32:03.998Z,37.89
2022-08-24T12:33:03.241Z,37.96
2022-08-24T12:34:03.473Z,38.06
2022-08-24T12:35:03.674Z,38.18
2022-08-24T12:36:03.681Z,38.25
2022-08-24T12:37:04.820Z,38.28
2022-08-24T12:38:03.030Z,38.30
2022-08-24T12:39:03.235Z,38.33
2022-08-24T12:40:03.318Z,38.33
2022-08-24T12:41:03.411Z,38.25
2022-08-24T12:42:03.379Z,38.17
2022-08-24T12:43:03.641Z,38.06
2022-08-24T12:44:03.770Z,38.11
2022-08-24T12:45:03.906Z,38.27
2022-08-24T12:46:04.008Z,38.40
2022-08-24T12:47:04.145Z,38.44
2022-08-24T12:48:03.214Z,38.39
2022-08-24T12:49:03.327Z,38.22
2022-08-24T12:50:03.241Z,38.11
2022-08-24T12:51:03.228Z,37.98
2022-08-24T12:52:03.392Z,37.99
2022-08-24T12:53:04.336Z,37.96
2022-08-24T12:54:04.099Z,37.99